sensor_id;sensor_type;location;lat;lon;timestamp;pressure;altitude;pressure_sealevel;temperature;humidity
29163;BME280;20331;53.144;8.208;2023-04-06T00:09:46;102107.84;;;5.68;75.46
29163;BME280;20331;53.144;8.208;2023-04-06T00:20:08;102109.50;;;5.63;76.26
29163;BME280;20331;53.144;8.208;2023-04-06T00:30:29;102100.00;;;5.53;76.36
29163;BME280;20331;53.144;8.208;2023-04-06T00:40:50;102091.34;;;5.46;75.18
29163;BME280;20331;53.144;8.208;2023-04-06T00:51:12;102080.06;;;5.29;76.87
29163;BME280;20331;53.144;8.208;2023-04-06T01:01:33;102070.50;;;5.19;76.09
29163;BME280;20331;53.144;8.208;2023-04-06T01:11:58;102065.25;;;5.08;76.34
29163;BME280;20331;53.144;8.208;2023-04-06T01:22:20;102054.03;;;4.99;76.41
29163;BME280;20331;53.144;8.208;2023-04-06T01:32:41;102047.03;;;4.87;77.13
29163;BME280;20331;53.144;8.208;2023-04-06T01:43:03;102045.22;;;4.79;77.62
29163;BME280;20331;53.144;8.208;2023-04-06T01:53:24;102034.03;;;4.72;77.75
29163;BME280;20331;53.144;8.208;2023-04-06T02:03:45;102029.69;;;4.68;77.13
29163;BME280;20331;53.144;8.208;2023-04-06T02:14:07;102009.97;;;4.61;77.38
29163;BME280;20331;53.144;8.208;2023-04-06T02:24:28;102003.06;;;4.57;77.44
29163;BME280;20331;53.144;8.208;2023-04-06T02:34:50;101997.84;;;4.51;77.07
29163;BME280;20331;53.144;8.208;2023-04-06T02:45:11;102000.38;;;4.47;76.63
29163;BME280;20331;53.144;8.208;2023-04-06T02:55:32;101994.31;;;4.43;77.17
29163;BME280;20331;53.144;8.208;2023-04-06T03:05:54;101995.06;;;4.35;75.86
29163;BME280;20331;53.144;8.208;2023-04-06T03:16:17;101997.47;;;4.24;75.86
29163;BME280;20331;53.144;8.208;2023-04-06T03:26:38;101997.38;;;4.18;75.86
29163;BME280;20331;53.144;8.208;2023-04-06T03:37:00;101988.75;;;4.10;75.92
29163;BME280;20331;53.144;8.208;2023-04-06T03:47:31;101986.84;;;4.00;75.51
29163;BME280;20331;53.144;8.208;2023-04-06T03:57:52;101991.84;;;3.92;75.77
29163;BME280;20331;53.144;8.208;2023-04-06T04:08:13;101996.84;;;3.85;75.83
29163;BME280;20331;53.144;8.208;2023-04-06T04:18:35;101988.13;;;3.74;75.77
29163;BME280;20331;53.144;8.208;2023-04-06T04:28:57;101989.81;;;3.72;75.70
29163;BME280;20331;53.144;8.208;2023-04-06T04:39:19;101981.97;;;3.61;75.77
29163;BME280;20331;53.144;8.208;2023-04-06T04:49:40;101991.28;;;3.58;75.67
29163;BME280;20331;53.144;8.208;2023-04-06T05:00:02;101997.13;;;3.51;75.07
29163;BME280;20331;53.144;8.208;2023-04-06T05:10:23;101990.31;;;3.50;75.20
29163;BME280;20331;53.144;8.208;2023-04-06T05:20:46;101987.75;;;3.50;75.20
29163;BME280;20331;53.144;8.208;2023-04-06T05:31:08;101984.31;;;3.48;74.90
29163;BME280;20331;53.144;8.208;2023-04-06T05:41:29;101977.53;;;3.51;74.39
29163;BME280;20331;53.144;8.208;2023-04-06T05:51:50;101993.03;;;3.59;74.22
29163;BME280;20331;53.144;8.208;2023-04-06T06:02:12;101979.50;;;3.66;73.94
29163;BME280;20331;53.144;8.208;2023-04-06T06:12:33;101976.31;;;3.79;73.68
29163;BME280;20331;53.144;8.208;2023-04-06T06:22:55;101958.56;;;3.91;72.74
29163;BME280;20331;53.144;8.208;2023-04-06T06:33:17;101951.94;;;4.06;71.88
29163;BME280;20331;53.144;8.208;2023-04-06T06:43:38;101960.84;;;4.30;71.92
29163;BME280;20331;53.144;8.208;2023-04-06T06:54:00;101959.44;;;4.54;71.89
29163;BME280;20331;53.144;8.208;2023-04-06T07:04:22;101945.28;;;4.83;71.74
29163;BME280;20331;53.144;8.208;2023-04-06T07:14:43;101944.72;;;5.08;71.37
29163;BME280;20331;53.144;8.208;2023-04-06T07:25:05;101933.75;;;5.28;70.68
29163;BME280;20331;53.144;8.208;2023-04-06T07:35:26;101931.41;;;5.53;69.53
29163;BME280;20331;53.144;8.208;2023-04-06T07:45:48;101927.44;;;5.84;68.11
29163;BME280;20331;53.144;8.208;2023-04-06T07:56:10;101905.31;;;6.04;67.21
29163;BME280;20331;53.144;8.208;2023-04-06T08:06:31;101903.69;;;6.27;65.55
29163;BME280;20331;53.144;8.208;2023-04-06T08:16:53;101891.81;;;6.56;63.35
29163;BME280;20331;53.144;8.208;2023-04-06T08:27:14;101898.75;;;6.75;66.27
29163;BME280;20331;53.144;8.208;2023-04-06T08:37:36;101902.22;;;6.98;65.57
29163;BME280;20331;53.144;8.208;2023-04-06T08:47:57;101881.69;;;7.38;64.32
29163;BME280;20331;53.144;8.208;2023-04-06T08:58:20;101874.78;;;7.70;64.13
29163;BME280;20331;53.144;8.208;2023-04-06T09:08:57;101866.97;;;8.07;62.88
29163;BME280;20331;53.144;8.208;2023-04-06T09:19:19;101867.69;;;8.49;59.85
29163;BME280;20331;53.144;8.208;2023-04-06T09:29:41;101864.13;;;8.72;62.06
29163;BME280;20331;53.144;8.208;2023-04-06T09:40:03;101844.19;;;8.94;56.16
29163;BME280;20331;53.144;8.208;2023-04-06T09:50:24;101854.34;;;9.17;61.04
29163;BME280;20331;53.144;8.208;2023-04-06T10:11:17;101836.56;;;9.79;59.38
29163;BME280;20331;53.144;8.208;2023-04-06T10:21:39;101823.00;;;10.33;51.33
29163;BME280;20331;53.144;8.208;2023-04-06T10:32:01;101823.47;;;10.64;54.53
29163;BME280;20331;53.144;8.208;2023-04-06T10:42:35;101818.09;;;10.76;56.33
29163;BME280;20331;53.144;8.208;2023-04-06T10:53:01;101815.34;;;10.86;54.94
29163;BME280;20331;53.144;8.208;2023-04-06T11:03:22;101807.22;;;11.09;55.00
29163;BME280;20331;53.144;8.208;2023-04-06T11:13:45;101792.22;;;11.28;54.76
29163;BME280;20331;53.144;8.208;2023-04-06T11:24:11;101789.19;;;11.50;55.45
29163;BME280;20331;53.144;8.208;2023-04-06T11:34:34;101777.69;;;11.68;54.10
29163;BME280;20331;53.144;8.208;2023-04-06T11:44:58;101770.38;;;11.88;53.79
29163;BME280;20331;53.144;8.208;2023-04-06T11:55:20;101749.94;;;12.14;45.21
29163;BME280;20331;53.144;8.208;2023-04-06T12:05:41;101744.78;;;12.49;48.30
29163;BME280;20331;53.144;8.208;2023-04-06T12:16:03;101735.47;;;12.77;47.21
29163;BME280;20331;53.144;8.208;2023-04-06T12:26:24;101722.81;;;12.97;52.17
29163;BME280;20331;53.144;8.208;2023-04-06T12:36:46;101715.28;;;13.22;51.22
29163;BME280;20331;53.144;8.208;2023-04-06T12:47:08;101716.06;;;13.56;47.71
29163;BME280;20331;53.144;8.208;2023-04-06T12:57:30;101712.00;;;13.77;50.85
29163;BME280;20331;53.144;8.208;2023-04-06T13:07:51;101703.72;;;13.93;40.93
29163;BME280;20331;53.144;8.208;2023-04-06T13:18:13;101693.84;;;14.03;48.71
29163;BME280;20331;53.144;8.208;2023-04-06T13:28:35;101681.47;;;14.11;51.79
29163;BME280;20331;53.144;8.208;2023-04-06T13:38:58;101682.97;;;14.18;51.45
29163;BME280;20331;53.144;8.208;2023-04-06T13:49:20;101678.88;;;14.11;46.33
29163;BME280;20331;53.144;8.208;2023-04-06T13:59:42;101672.69;;;14.43;51.55
29163;BME280;20331;53.144;8.208;2023-04-06T14:10:08;101647.47;;;14.69;47.87
29163;BME280;20331;53.144;8.208;2023-04-06T14:20:35;101656.56;;;14.82;49.18
29163;BME280;20331;53.144;8.208;2023-04-06T14:30:56;101648.25;;;14.97;48.29
29163;BME280;20331;53.144;8.208;2023-04-06T14:41:18;101638.50;;;15.02;40.79
29163;BME280;20331;53.144;8.208;2023-04-06T14:51:39;101624.84;;;15.19;50.72
29163;BME280;20331;53.144;8.208;2023-04-06T15:02:01;101622.81;;;15.73;45.45
29163;BME280;20331;53.144;8.208;2023-04-06T15:12:24;101616.78;;;15.73;46.53
29163;BME280;20331;53.144;8.208;2023-04-06T15:22:45;101620.06;;;15.55;47.44
29163;BME280;20331;53.144;8.208;2023-04-06T15:33:07;101608.59;;;15.36;48.06
29163;BME280;20331;53.144;8.208;2023-04-06T15:43:29;101611.97;;;15.14;45.69
29163;BME280;20331;53.144;8.208;2023-04-06T15:53:50;101604.94;;;14.93;48.64
29163;BME280;20331;53.144;8.208;2023-04-06T16:04:12;101606.16;;;14.83;43.22
29163;BME280;20331;53.144;8.208;2023-04-06T16:14:35;101614.25;;;14.76;47.05
29163;BME280;20331;53.144;8.208;2023-04-06T16:24:56;101610.78;;;14.75;42.84
29163;BME280;20331;53.144;8.208;2023-04-06T16:35:17;101599.44;;;14.76;47.46
29163;BME280;20331;53.144;8.208;2023-04-06T16:45:40;101606.03;;;14.62;49.41
29163;BME280;20331;53.144;8.208;2023-04-06T16:56:02;101613.63;;;14.43;49.09
29163;BME280;20331;53.144;8.208;2023-04-06T17:06:25;101616.81;;;14.25;49.20
29163;BME280;20331;53.144;8.208;2023-04-06T17:16:47;101609.47;;;14.10;49.30
29163;BME280;20331;53.144;8.208;2023-04-06T17:27:09;101615.09;;;13.98;50.57
29163;BME280;20331;53.144;8.208;2023-04-06T17:37:30;101622.69;;;13.76;51.32
29163;BME280;20331;53.144;8.208;2023-04-06T17:47:53;101624.25;;;13.54;52.73
29163;BME280;20331;53.144;8.208;2023-04-06T17:58:15;101630.84;;;13.35;55.38
29163;BME280;20331;53.144;8.208;2023-04-06T18:08:37;101643.56;;;13.15;55.76
29163;BME280;20331;53.144;8.208;2023-04-06T18:19:01;101639.84;;;12.91;56.58
29163;BME280;20331;53.144;8.208;2023-04-06T18:29:24;101654.22;;;12.72;57.10
29163;BME280;20331;53.144;8.208;2023-04-06T18:39:46;101650.38;;;12.53;57.39
29163;BME280;20331;53.144;8.208;2023-04-06T18:50:07;101657.69;;;12.38;57.77
29163;BME280;20331;53.144;8.208;2023-04-06T19:00:29;101667.53;;;12.24;58.60
29163;BME280;20331;53.144;8.208;2023-04-06T19:10:50;101667.16;;;12.02;58.59
29163;BME280;20331;53.144;8.208;2023-04-06T19:21:15;101670.03;;;11.90;58.55
29163;BME280;20331;53.144;8.208;2023-04-06T19:31:37;101674.94;;;12.02;54.84
29163;BME280;20331;53.144;8.208;2023-04-06T19:41:59;101686.88;;;12.09;56.44
29163;BME280;20331;53.144;8.208;2023-04-06T19:52:20;101685.41;;;11.99;57.23
29163;BME280;20331;53.144;8.208;2023-04-06T20:02:42;101688.25;;;11.87;57.59
29163;BME280;20331;53.144;8.208;2023-04-06T20:13:04;101696.22;;;11.78;55.84
29163;BME280;20331;53.144;8.208;2023-04-06T20:23:26;101695.63;;;11.64;56.62
29163;BME280;20331;53.144;8.208;2023-04-06T20:33:47;101687.97;;;11.58;57.57
29163;BME280;20331;53.144;8.208;2023-04-06T20:44:08;101699.47;;;11.45;58.75
29163;BME280;20331;53.144;8.208;2023-04-06T20:54:30;101693.69;;;11.31;54.35
29163;BME280;20331;53.144;8.208;2023-04-06T21:04:52;101692.00;;;11.30;60.45
29163;BME280;20331;53.144;8.208;2023-04-06T21:15:13;101694.72;;;11.22;60.67
29163;BME280;20331;53.144;8.208;2023-04-06T21:25:35;101702.66;;;11.14;59.26
29163;BME280;20331;53.144;8.208;2023-04-06T21:35:56;101701.81;;;11.12;53.43
29163;BME280;20331;53.144;8.208;2023-04-06T21:46:18;101702.47;;;11.24;58.40
29163;BME280;20331;53.144;8.208;2023-04-06T21:56:39;101700.91;;;11.15;58.56
29163;BME280;20331;53.144;8.208;2023-04-06T22:07:01;101695.88;;;11.07;60.27
29163;BME280;20331;53.144;8.208;2023-04-06T22:17:22;101689.75;;;11.10;61.54
29163;BME280;20331;53.144;8.208;2023-04-06T22:27:44;101682.97;;;11.04;62.53
29163;BME280;20331;53.144;8.208;2023-04-06T22:38:05;101688.16;;;11.03;62.95
29163;BME280;20331;53.144;8.208;2023-04-06T22:48:27;101689.19;;;10.94;64.14
29163;BME280;20331;53.144;8.208;2023-04-06T22:58:48;101705.84;;;10.80;65.50
29163;BME280;20331;53.144;8.208;2023-04-06T23:09:11;101696.41;;;10.77;65.52
29163;BME280;20331;53.144;8.208;2023-04-06T23:19:32;101700.75;;;10.75;66.46
29163;BME280;20331;53.144;8.208;2023-04-06T23:29:54;101686.25;;;10.65;66.52
29163;BME280;20331;53.144;8.208;2023-04-06T23:40:15;101690.66;;;10.59;67.89
29163;BME280;20331;53.144;8.208;2023-04-06T23:50:37;101691.72;;;10.47;67.67
